createdAt,value
2019-03-26T00:00:35.435Z,22.80
2019-03-26T00:01:08.528Z,21.67
2019-03-26T00:01:39.754Z,28.03
2019-03-26T00:02:10.930Z,29.77
2019-03-26T00:02:42.129Z,32.10
2019-03-26T00:03:14.269Z,31.97
2019-03-26T00:03:45.460Z,30.70
2019-03-26T00:04:16.613Z,27.13
2019-03-26T00:04:47.819Z,29.33
2019-03-26T00:05:18.959Z,30.43
2019-03-26T00:05:50.172Z,32.87
2019-03-26T00:06:21.315Z,35.23
2019-03-26T00:06:52.613Z,30.77
2019-03-26T00:07:24.011Z,28.20
2019-03-26T00:07:55.223Z,31.37
2019-03-26T00:08:26.367Z,23.00
2019-03-26T00:08:57.567Z,29.33
2019-03-26T00:09:28.736Z,28.30
2019-03-26T00:09:59.931Z,23.60
2019-03-26T00:10:31.071Z,22.60
2019-03-26T00:11:02.678Z,21.43
2019-03-26T00:11:33.961Z,23.03
2019-03-26T00:12:05.316Z,23.70
2019-03-26T00:12:36.581Z,21.87
2019-03-26T00:13:07.767Z,25.00
2019-03-26T00:13:38.932Z,26.70
2019-03-26T00:14:10.134Z,27.80
2019-03-26T00:14:41.307Z,30.23
2019-03-26T00:15:12.493Z,25.33
2019-03-26T00:15:43.663Z,29.83
2019-03-26T00:16:14.904Z,25.80
2019-03-26T00:16:46.139Z,26.90
2019-03-26T00:17:17.391Z,27.90
2019-03-26T00:17:48.597Z,19.53
2019-03-26T00:18:19.776Z,22.30
2019-03-26T00:18:50.997Z,23.87
2019-03-26T00:19:23.153Z,24.60
2019-03-26T00:19:54.359Z,25.07
2019-03-26T00:20:25.510Z,23.40
2019-03-26T00:20:56.969Z,28.93
2019-03-26T00:21:28.168Z,27.17
2019-03-26T00:21:59.382Z,27.90
2019-03-26T00:22:30.540Z,28.80
2019-03-26T00:23:01.758Z,28.10
2019-03-26T00:23:32.898Z,29.33
2019-03-26T00:24:04.106Z,26.37
2019-03-26T00:24:35.242Z,22.30
2019-03-26T00:25:06.462Z,19.00
2019-03-26T00:25:38.614Z,27.60
2019-03-26T00:26:09.827Z,22.70
2019-03-26T00:26:40.981Z,21.77
2019-03-26T00:27:12.164Z,24.80
2019-03-26T00:27:43.358Z,22.43
2019-03-26T00:28:14.556Z,20.03
2019-03-26T00:28:45.724Z,21.50
2019-03-26T00:29:16.956Z,24.03
2019-03-26T00:29:48.106Z,22.30
2019-03-26T00:30:19.345Z,20.13
2019-03-26T00:30:50.494Z,19.67
2019-03-26T00:31:21.689Z,23.10
2019-03-26T00:31:52.843Z,26.83
2019-03-26T00:32:24.208Z,23.03
2019-03-26T00:32:55.378Z,25.17
2019-03-26T00:33:36.383Z,25.77
2019-03-26T00:33:59.621Z,28.50
2019-03-26T00:34:30.833Z,28.17
2019-03-26T00:35:01.991Z,23.33
2019-03-26T00:35:33.179Z,28.13
2019-03-26T00:36:04.325Z,23.60
2019-03-26T00:36:35.542Z,25.77
2019-03-26T00:37:06.701Z,20.07
2019-03-26T00:37:38.905Z,24.23
2019-03-26T00:38:10.082Z,26.67
2019-03-26T00:38:41.425Z,19.73
2019-03-26T00:39:12.867Z,19.77
2019-03-26T00:39:44.102Z,20.33
2019-03-26T00:40:15.342Z,24.07
2019-03-26T00:40:46.612Z,21.30
2019-03-26T00:41:17.882Z,18.77
2019-03-26T00:41:49.116Z,20.07
2019-03-26T00:42:20.365Z,21.27
2019-03-26T00:42:51.593Z,27.43
2019-03-26T00:43:22.793Z,22.90
2019-03-26T00:43:53.959Z,21.53
2019-03-26T00:44:25.167Z,18.00
2019-03-26T00:44:56.531Z,20.43
2019-03-26T00:45:27.689Z,23.43
2019-03-26T00:45:58.884Z,24.33
2019-03-26T00:46:30.153Z,24.53
2019-03-26T00:47:01.328Z,26.13
2019-03-26T00:47:32.545Z,22.50
2019-03-26T00:48:03.692Z,25.17
2019-03-26T00:48:34.887Z,28.53
2019-03-26T00:49:06.054Z,22.50
2019-03-26T00:49:37.256Z,25.13
2019-03-26T00:50:08.436Z,24.17
2019-03-26T00:50:39.742Z,30.37
2019-03-26T00:51:10.907Z,24.33
2019-03-26T00:51:42.112Z,22.83
2019-03-26T00:52:13.280Z,27.03
2019-03-26T00:52:44.498Z,21.97
2019-03-26T00:53:15.772Z,17.53
2019-03-26T00:53:46.960Z,25.43
2019-03-26T00:54:18.118Z,22.50
2019-03-26T00:54:49.322Z,21.30
2019-03-26T00:55:22.741Z,26.30
2019-03-26T00:55:53.632Z,17.87
2019-03-26T00:56:24.807Z,22.17
2019-03-26T00:56:56.007Z,18.23
2019-03-26T00:57:27.158Z,17.37
2019-03-26T00:58:01.405Z,20.53
2019-03-26T00:58:31.430Z,20.67
2019-03-26T00:59:02.614Z,20.67
2019-03-26T00:59:33.795Z,17.97
2019-03-26T01:00:06.073Z,25.20
2019-03-26T01:00:41.074Z,22.37
2019-03-26T01:01:12.233Z,19.70
2019-03-26T01:01:43.417Z,18.90
2019-03-26T01:02:14.669Z,24.83
2019-03-26T01:02:45.881Z,21.53
2019-03-26T01:03:17.058Z,21.00
2019-03-26T01:03:48.262Z,21.13
2019-03-26T01:04:32.125Z,25.13
2019-03-26T01:04:53.662Z,20.07
2019-03-26T01:05:24.847Z,25.50
2019-03-26T01:05:56.094Z,23.33
2019-03-26T01:06:27.310Z,20.87
2019-03-26T01:06:58.491Z,18.23
2019-03-26T01:07:29.680Z,24.73
2019-03-26T01:08:01.888Z,21.53
2019-03-26T01:08:33.088Z,20.73
2019-03-26T01:09:04.951Z,22.93
2019-03-26T01:09:36.162Z,16.37
2019-03-26T01:10:13.002Z,19.60
2019-03-26T01:10:44.207Z,21.73
2019-03-26T01:11:15.365Z,16.90
2019-03-26T01:11:46.620Z,19.03
2019-03-26T01:12:17.784Z,17.23
2019-03-26T01:12:48.984Z,16.47
2019-03-26T01:13:20.141Z,15.40
2019-03-26T01:13:51.344Z,18.20
2019-03-26T01:14:22.514Z,16.37
2019-03-26T01:14:53.702Z,20.80
2019-03-26T01:15:24.847Z,17.23
2019-03-26T01:15:56.032Z,16.83
2019-03-26T01:16:27.230Z,18.07
2019-03-26T01:16:59.456Z,17.30
2019-03-26T01:17:30.687Z,20.97
2019-03-26T01:18:01.925Z,23.37
2019-03-26T01:18:33.139Z,19.73
2019-03-26T01:19:04.332Z,26.83
2019-03-26T01:19:35.558Z,22.93
2019-03-26T01:20:06.907Z,20.17
2019-03-26T01:20:38.140Z,17.50
2019-03-26T01:21:09.370Z,18.37
2019-03-26T01:21:40.589Z,20.00
2019-03-26T01:22:12.119Z,19.57
2019-03-26T01:22:43.335Z,22.37
2019-03-26T01:23:14.549Z,16.47
2019-03-26T01:23:45.763Z,16.70
2019-03-26T01:24:16.944Z,19.10
2019-03-26T01:24:48.182Z,15.77
2019-03-26T01:25:19.412Z,22.17
2019-03-26T01:25:50.655Z,17.47
2019-03-26T01:26:21.880Z,14.27
2019-03-26T01:26:53.101Z,13.97
2019-03-26T01:27:24.341Z,18.67
2019-03-26T01:27:55.941Z,17.80
2019-03-26T01:28:27.181Z,15.10
2019-03-26T01:28:58.369Z,14.47
2019-03-26T01:29:29.508Z,18.87
2019-03-26T01:30:00.717Z,20.13
2019-03-26T01:30:32.869Z,15.77
2019-03-26T01:31:04.077Z,18.47
2019-03-26T01:31:35.230Z,16.97
2019-03-26T01:32:06.443Z,16.50
2019-03-26T01:32:37.599Z,13.80
2019-03-26T01:33:08.813Z,17.17
2019-03-26T01:33:40.050Z,13.20
2019-03-26T01:34:11.784Z,17.97
2019-03-26T01:34:46.152Z,20.47
2019-03-26T01:35:16.030Z,21.70
2019-03-26T01:35:47.188Z,17.50
2019-03-26T01:36:18.401Z,16.83
2019-03-26T01:36:49.565Z,17.43
2019-03-26T01:37:20.784Z,15.10
2019-03-26T01:37:51.965Z,19.90
2019-03-26T01:38:23.488Z,21.10
2019-03-26T01:38:54.661Z,17.13
2019-03-26T01:39:25.868Z,15.63
2019-03-26T01:39:57.025Z,15.27
2019-03-26T01:40:28.226Z,16.03
2019-03-26T01:40:59.377Z,12.07
2019-03-26T01:41:30.658Z,15.40
2019-03-26T01:42:01.847Z,17.90
2019-03-26T01:42:33.044Z,15.57
2019-03-26T01:43:04.202Z,13.93
2019-03-26T01:43:35.502Z,16.30
2019-03-26T01:44:06.679Z,15.03
2019-03-26T01:44:37.922Z,14.43
2019-03-26T01:45:09.559Z,16.80
2019-03-26T01:45:40.804Z,16.07
2019-03-26T01:46:11.969Z,16.03
2019-03-26T01:46:43.152Z,15.87
2019-03-26T01:47:14.318Z,18.90
2019-03-26T01:47:45.475Z,15.60
2019-03-26T01:48:16.676Z,17.83
2019-03-26T01:48:47.861Z,14.80
2019-03-26T01:49:19.046Z,15.50
2019-03-26T01:49:50.226Z,14.73
2019-03-26T01:50:21.411Z,15.13
2019-03-26T01:50:52.585Z,16.57
2019-03-26T01:51:23.761Z,15.93
2019-03-26T01:51:54.951Z,15.53
2019-03-26T01:52:26.427Z,18.13
2019-03-26T01:52:57.610Z,16.07
2019-03-26T01:53:28.791Z,20.90
2019-03-26T01:54:00.084Z,14.07
2019-03-26T01:54:31.265Z,14.63
2019-03-26T01:55:04.951Z,15.17
2019-03-26T01:55:36.180Z,15.33
2019-03-26T01:56:08.374Z,14.43
2019-03-26T01:56:39.568Z,17.53
2019-03-26T01:57:10.761Z,13.20
2019-03-26T01:57:41.957Z,14.27
2019-03-26T01:58:13.185Z,15.00
2019-03-26T01:58:44.375Z,18.43
2019-03-26T01:59:15.562Z,15.80
2019-03-26T01:59:46.755Z,15.70
2019-03-26T02:00:17.991Z,14.50
2019-03-26T02:00:49.250Z,14.37
2019-03-26T02:01:20.578Z,17.87
2019-03-26T02:01:51.852Z,15.60
2019-03-26T02:02:23.086Z,23.27
2019-03-26T02:02:54.319Z,14.07
2019-03-26T02:03:25.547Z,14.80
2019-03-26T02:03:56.978Z,14.63
2019-03-26T02:04:28.266Z,16.43
2019-03-26T02:05:00.583Z,14.70
2019-03-26T02:05:32.074Z,16.53
2019-03-26T02:06:03.229Z,14.77
2019-03-26T02:06:34.429Z,15.60
2019-03-26T02:07:05.567Z,15.57
2019-03-26T02:07:38.935Z,10.97
2019-03-26T02:08:09.829Z,11.13
2019-03-26T02:08:41.039Z,16.43
2019-03-26T02:09:13.202Z,18.97
2019-03-26T02:09:44.428Z,11.00
2019-03-26T02:10:15.591Z,13.67
2019-03-26T02:10:46.820Z,13.90
2019-03-26T02:11:17.983Z,12.30
2019-03-26T02:11:49.169Z,12.97
2019-03-26T02:12:20.313Z,15.00
2019-03-26T02:12:51.533Z,14.37
2019-03-26T02:13:22.757Z,13.23
2019-03-26T02:13:54.189Z,15.93
2019-03-26T02:14:25.355Z,14.30
2019-03-26T02:14:56.573Z,16.60
2019-03-26T02:15:29.507Z,12.90
2019-03-26T02:16:00.725Z,16.63
2019-03-26T02:16:31.891Z,13.40
2019-03-26T02:17:03.088Z,13.80
2019-03-26T02:17:34.268Z,12.97
2019-03-26T02:18:05.419Z,15.77
2019-03-26T02:18:36.562Z,19.60
2019-03-26T02:19:07.747Z,16.50
2019-03-26T02:19:38.931Z,15.97
2019-03-26T02:20:10.074Z,16.50
2019-03-26T02:20:41.278Z,18.17
2019-03-26T02:21:13.743Z,19.33
2019-03-26T02:21:45.049Z,14.10
2019-03-26T02:22:16.224Z,16.17
2019-03-26T02:22:47.419Z,17.77
2019-03-26T02:23:18.616Z,19.27
2019-03-26T02:23:49.810Z,16.17
2019-03-26T02:24:20.957Z,15.53
2019-03-26T02:24:52.152Z,15.53
2019-03-26T02:25:23.289Z,13.60
2019-03-26T02:25:54.515Z,19.23
2019-03-26T02:26:25.753Z,16.33
2019-03-26T02:26:57.120Z,18.37
2019-03-26T02:27:28.274Z,14.93
2019-03-26T02:28:00.468Z,19.30
2019-03-26T02:28:31.636Z,15.50
2019-03-26T02:29:02.841Z,17.87
2019-03-26T02:29:35.020Z,17.90
2019-03-26T02:30:06.230Z,17.40
2019-03-26T02:30:37.482Z,19.07
2019-03-26T02:31:08.719Z,19.53
2019-03-26T02:31:39.973Z,21.37
2019-03-26T02:32:11.168Z,20.30
2019-03-26T02:32:42.314Z,18.57
2019-03-26T02:33:13.534Z,20.50
2019-03-26T02:33:44.724Z,21.37
2019-03-26T02:34:15.926Z,19.13
2019-03-26T02:34:47.112Z,16.60
2019-03-26T02:35:19.332Z,14.80
2019-03-26T02:35:50.753Z,18.37
2019-03-26T02:36:21.927Z,14.97
2019-03-26T02:36:53.122Z,17.17
2019-03-26T02:37:24.293Z,15.77
2019-03-26T02:37:55.481Z,19.43
2019-03-26T02:38:26.665Z,21.37
2019-03-26T02:38:57.828Z,13.60
2019-03-26T02:39:29.014Z,14.27
2019-03-26T02:40:00.671Z,15.57
2019-03-26T02:40:31.970Z,15.53
2019-03-26T02:41:03.165Z,18.60
2019-03-26T02:41:37.792Z,17.93
2019-03-26T02:42:07.600Z,17.67
2019-03-26T02:42:38.792Z,19.77
2019-03-26T02:43:11.088Z,17.93
2019-03-26T02:43:42.283Z,14.53
2019-03-26T02:44:13.506Z,21.37
2019-03-26T02:44:44.811Z,16.80
2019-03-26T02:45:16.006Z,16.80
2019-03-26T02:45:47.168Z,20.63
2019-03-26T02:46:18.374Z,18.37
2019-03-26T02:46:49.531Z,18.33
2019-03-26T02:47:21.037Z,20.80
2019-03-26T02:47:53.466Z,19.37
2019-03-26T02:48:24.636Z,19.73
2019-03-26T02:48:55.789Z,19.03
2019-03-26T02:49:27.107Z,23.33
2019-03-26T02:49:58.393Z,17.70
2019-03-26T02:50:29.615Z,16.97
2019-03-26T02:51:00.791Z,16.13
2019-03-26T02:51:32.011Z,18.20
2019-03-26T02:52:03.177Z,17.83
2019-03-26T02:52:35.359Z,18.07
2019-03-26T02:53:08.659Z,18.60
2019-03-26T02:53:39.643Z,23.07
2019-03-26T02:54:10.899Z,21.07
2019-03-26T02:54:42.123Z,21.80
2019-03-26T02:55:13.329Z,20.33
2019-03-26T02:55:44.534Z,22.13
2019-03-26T02:56:15.740Z,18.07
2019-03-26T02:56:46.908Z,19.33
2019-03-26T02:57:18.122Z,26.33
2019-03-26T02:57:49.275Z,22.60
2019-03-26T02:58:20.482Z,18.77
2019-03-26T02:58:51.639Z,20.60
2019-03-26T02:59:22.868Z,22.73
2019-03-26T02:59:54.042Z,19.43
2019-03-26T03:00:25.238Z,22.47
2019-03-26T03:00:56.408Z,24.40
2019-03-26T03:01:27.587Z,20.93
2019-03-26T03:01:58.783Z,24.03
2019-03-26T03:02:29.988Z,21.63
2019-03-26T03:03:01.155Z,21.37
2019-03-26T03:03:32.354Z,20.23
2019-03-26T03:04:03.501Z,20.50
2019-03-26T03:04:34.700Z,24.17
2019-03-26T03:05:05.874Z,20.47
2019-03-26T03:05:37.083Z,19.03
2019-03-26T03:06:08.539Z,25.03
2019-03-26T03:06:39.745Z,19.17
2019-03-26T03:07:10.949Z,20.63
2019-03-26T03:07:42.168Z,19.80
2019-03-26T03:08:13.331Z,18.63
2019-03-26T03:08:45.537Z,25.17
2019-03-26T03:09:16.734Z,19.43
2019-03-26T03:09:47.999Z,23.67
2019-03-26T03:10:19.187Z,22.17
2019-03-26T03:10:50.437Z,20.77
2019-03-26T03:11:21.618Z,21.47
2019-03-26T03:11:52.845Z,22.23
2019-03-26T03:12:25.074Z,20.70
2019-03-26T03:12:56.393Z,18.93
2019-03-26T03:13:28.548Z,26.70
2019-03-26T03:13:59.741Z,20.43
2019-03-26T03:14:30.909Z,23.80
2019-03-26T03:15:03.902Z,22.43
2019-03-26T03:15:35.183Z,22.13
2019-03-26T03:16:06.361Z,23.67
2019-03-26T03:16:37.557Z,20.30
2019-03-26T03:17:08.736Z,24.40
2019-03-26T03:17:39.932Z,20.37
2019-03-26T03:18:11.106Z,23.73
2019-03-26T03:18:42.274Z,22.67
2019-03-26T03:19:15.924Z,18.07
2019-03-26T03:19:46.567Z,19.77
2019-03-26T03:20:17.726Z,19.17
2019-03-26T03:20:48.986Z,18.07
2019-03-26T03:21:20.161Z,21.20
2019-03-26T03:21:52.366Z,19.33
2019-03-26T03:22:23.590Z,18.77
2019-03-26T03:22:54.768Z,20.73
2019-03-26T03:23:26.397Z,18.00
2019-03-26T03:23:57.608Z,17.93
2019-03-26T03:24:28.790Z,19.73
2019-03-26T03:24:59.969Z,18.40
2019-03-26T03:25:31.284Z,24.20
2019-03-26T03:26:02.476Z,20.10
2019-03-26T03:26:33.629Z,20.50
2019-03-26T03:27:04.845Z,20.57
2019-03-26T03:27:36.083Z,21.40
2019-03-26T03:28:07.284Z,16.70
2019-03-26T03:28:38.428Z,22.80
2019-03-26T03:29:09.640Z,18.67
2019-03-26T03:29:40.821Z,19.67
2019-03-26T03:30:12.892Z,17.67
2019-03-26T03:30:44.085Z,16.40
2019-03-26T03:31:15.433Z,20.30
2019-03-26T03:31:46.794Z,17.27
2019-03-26T03:32:18.086Z,18.43
2019-03-26T03:32:49.457Z,21.93
2019-03-26T03:33:20.763Z,19.67
2019-03-26T03:33:51.997Z,21.03
2019-03-26T03:34:23.467Z,21.47
2019-03-26T03:34:54.802Z,20.07
2019-03-26T03:35:26.028Z,20.10
2019-03-26T03:35:57.244Z,21.17
2019-03-26T03:36:28.453Z,17.83
2019-03-26T03:36:59.670Z,18.63
2019-03-26T03:37:30.961Z,16.83
2019-03-26T03:38:02.215Z,20.50
2019-03-26T03:38:33.367Z,18.50
2019-03-26T03:39:05.880Z,19.53
2019-03-26T03:39:37.234Z,21.10
2019-03-26T03:40:08.422Z,21.57
2019-03-26T03:40:39.581Z,18.03
2019-03-26T03:41:10.793Z,16.00
2019-03-26T03:41:41.955Z,17.63
2019-03-26T03:42:13.256Z,19.07
2019-03-26T03:42:44.435Z,20.40
2019-03-26T03:43:15.644Z,23.60
2019-03-26T03:43:46.833Z,18.40
2019-03-26T03:44:18.045Z,21.27
2019-03-26T03:44:49.226Z,20.17
2019-03-26T03:45:27.197Z,19.30
2019-03-26T03:45:58.380Z,17.07
2019-03-26T03:46:29.620Z,18.27
2019-03-26T03:47:00.850Z,19.33
2019-03-26T03:47:32.046Z,15.37
2019-03-26T03:48:03.243Z,18.47
2019-03-26T03:48:34.421Z,19.37
2019-03-26T03:49:05.585Z,17.60
2019-03-26T03:49:36.797Z,16.87
2019-03-26T03:50:07.981Z,18.87
2019-03-26T03:50:39.162Z,16.07
2019-03-26T03:51:10.407Z,17.57
2019-03-26T03:51:42.263Z,20.53
2019-03-26T03:52:13.486Z,15.77
2019-03-26T03:52:44.639Z,14.33
2019-03-26T03:53:15.950Z,15.07
2019-03-26T03:53:47.107Z,16.93
2019-03-26T03:54:18.398Z,21.60
2019-03-26T03:54:49.542Z,18.47
2019-03-26T03:55:20.752Z,17.40
2019-03-26T03:55:52.525Z,18.40
2019-03-26T03:56:24.231Z,15.80
2019-03-26T03:56:55.780Z,15.70
2019-03-26T03:57:27.109Z,16.83
2019-03-26T03:57:58.760Z,19.90
2019-03-26T03:58:31.266Z,21.40
2019-03-26T03:59:02.433Z,38.87
2019-03-26T03:59:33.731Z,25.57
2019-03-26T04:00:19.010Z,22.77
2019-03-26T04:00:50.238Z,15.17
2019-03-26T04:01:21.420Z,18.63
2019-03-26T04:01:52.733Z,14.47
2019-03-26T04:02:24.184Z,13.63
2019-03-26T04:02:55.410Z,16.67
2019-03-26T04:03:26.636Z,13.07
2019-03-26T04:03:57.901Z,12.83
2019-03-26T04:04:29.361Z,14.03
2019-03-26T04:05:00.641Z,14.17
2019-03-26T04:05:32.552Z,14.03
2019-03-26T04:06:09.385Z,13.87
2019-03-26T04:06:36.831Z,11.20
2019-03-26T04:07:08.068Z,12.77
2019-03-26T04:07:39.290Z,10.83
2019-03-26T04:08:10.524Z,12.27
2019-03-26T04:08:41.745Z,12.83
2019-03-26T04:09:12.979Z,13.63
2019-03-26T04:09:44.211Z,13.63
2019-03-26T04:10:15.420Z,15.20
2019-03-26T04:10:46.649Z,15.83
2019-03-26T04:11:17.881Z,12.77
2019-03-26T04:11:49.082Z,15.13
2019-03-26T04:12:20.332Z,13.93
2019-03-26T04:12:51.665Z,22.93
2019-03-26T04:13:22.903Z,17.23
2019-03-26T04:13:54.273Z,17.90
2019-03-26T04:14:25.500Z,15.20
2019-03-26T04:14:56.881Z,15.63
2019-03-26T04:15:28.109Z,17.00
2019-03-26T04:15:59.343Z,15.40
2019-03-26T04:16:30.555Z,12.53
2019-03-26T04:17:01.705Z,14.77
2019-03-26T04:17:32.920Z,14.07
2019-03-26T04:18:04.112Z,14.03
2019-03-26T04:18:35.323Z,16.23
2019-03-26T04:19:06.672Z,13.57
2019-03-26T04:19:38.003Z,15.27
2019-03-26T04:20:09.220Z,13.37
2019-03-26T04:20:40.434Z,12.20
2019-03-26T04:21:11.580Z,13.33
2019-03-26T04:21:42.985Z,15.47
2019-03-26T04:22:14.142Z,14.77
2019-03-26T04:22:45.377Z,13.90
2019-03-26T04:23:16.515Z,14.83
2019-03-26T04:23:47.724Z,14.27
2019-03-26T04:24:18.890Z,15.60
2019-03-26T04:24:50.100Z,14.57
2019-03-26T04:25:21.358Z,17.33
2019-03-26T04:25:52.626Z,14.93
2019-03-26T04:26:23.999Z,16.70
2019-03-26T04:26:55.200Z,15.50
2019-03-26T04:27:26.501Z,16.07
2019-03-26T04:27:57.717Z,14.83
2019-03-26T04:28:28.873Z,18.57
2019-03-26T04:29:00.076Z,17.13
2019-03-26T04:29:31.235Z,15.37
2019-03-26T04:30:06.748Z,13.97
2019-03-26T04:30:38.003Z,15.23
2019-03-26T04:31:09.207Z,12.13
2019-03-26T04:31:40.388Z,14.17
2019-03-26T04:32:11.629Z,12.13
2019-03-26T04:32:42.952Z,14.77
2019-03-26T04:33:14.185Z,15.23
2019-03-26T04:33:45.414Z,15.07
2019-03-26T04:34:16.731Z,12.80
2019-03-26T04:34:47.996Z,13.50
2019-03-26T04:35:19.252Z,11.23
2019-03-26T04:35:50.471Z,12.03
2019-03-26T04:36:26.003Z,12.97
2019-03-26T04:36:54.808Z,15.17
2019-03-26T04:37:25.981Z,12.60
2019-03-26T04:37:57.190Z,13.43
2019-03-26T04:38:28.363Z,14.33
2019-03-26T04:38:59.588Z,13.43
2019-03-26T04:39:30.747Z,12.10
2019-03-26T04:40:01.994Z,14.43
2019-03-26T04:40:33.225Z,13.07
2019-03-26T04:41:04.439Z,13.37
2019-03-26T04:41:35.690Z,14.37
2019-03-26T04:42:06.862Z,13.53
2019-03-26T04:42:38.036Z,14.03
2019-03-26T04:43:09.228Z,14.53
2019-03-26T04:43:40.404Z,14.43
2019-03-26T04:44:11.589Z,16.00
2019-03-26T04:44:42.761Z,16.53
2019-03-26T04:45:13.970Z,17.20
2019-03-26T04:45:45.127Z,15.13
2019-03-26T04:46:16.328Z,17.70
2019-03-26T04:46:47.527Z,15.87
2019-03-26T04:47:18.735Z,15.23
2019-03-26T04:47:49.988Z,14.70
2019-03-26T04:48:21.216Z,15.47
2019-03-26T04:48:52.398Z,17.10
2019-03-26T04:49:24.683Z,15.70
2019-03-26T04:49:55.946Z,14.93
2019-03-26T04:50:27.200Z,15.30
2019-03-26T04:50:58.388Z,16.60
2019-03-26T04:51:29.981Z,14.57
2019-03-26T04:52:01.159Z,14.60
2019-03-26T04:52:32.408Z,16.10
2019-03-26T04:53:03.613Z,14.80
2019-03-26T04:53:34.853Z,14.73
2019-03-26T04:54:06.086Z,17.60
2019-03-26T04:54:37.317Z,15.80
2019-03-26T04:55:08.553Z,16.67
2019-03-26T04:55:39.779Z,16.60
2019-03-26T04:56:11.002Z,15.77
2019-03-26T04:56:42.252Z,16.13
2019-03-26T04:57:13.467Z,17.10
2019-03-26T04:57:44.742Z,16.87
2019-03-26T04:58:15.948Z,17.77
2019-03-26T04:58:47.201Z,19.50
2019-03-26T04:59:18.404Z,18.00
2019-03-26T04:59:49.579Z,18.13
2019-03-26T05:00:20.789Z,15.67
2019-03-26T05:00:51.964Z,16.83
2019-03-26T05:01:23.545Z,17.87
2019-03-26T05:01:54.709Z,15.07
2019-03-26T05:02:25.918Z,17.30
2019-03-26T05:02:57.116Z,15.93
2019-03-26T05:03:28.347Z,15.40
2019-03-26T05:03:59.488Z,15.13
2019-03-26T05:04:30.720Z,15.07
2019-03-26T05:05:01.988Z,15.83
2019-03-26T05:05:33.184Z,15.27
2019-03-26T05:06:05.434Z,14.63
2019-03-26T05:06:38.137Z,14.93
2019-03-26T05:07:09.612Z,13.70
2019-03-26T05:07:40.867Z,12.27
2019-03-26T05:08:12.100Z,14.63
2019-03-26T05:08:43.350Z,16.33
2019-03-26T05:09:14.588Z,15.73
2019-03-26T05:09:45.812Z,15.80
2019-03-26T05:10:17.046Z,14.73
2019-03-26T05:10:49.313Z,14.77
2019-03-26T05:11:20.706Z,14.07
2019-03-26T05:11:51.936Z,14.17
2019-03-26T05:12:23.425Z,19.53
2019-03-26T05:12:54.588Z,15.63
2019-03-26T05:13:25.870Z,14.87
2019-03-26T05:13:57.052Z,17.37
2019-03-26T05:14:28.261Z,18.77
2019-03-26T05:14:59.427Z,15.53
2019-03-26T05:15:30.648Z,18.50
2019-03-26T05:16:01.806Z,17.40
2019-03-26T05:16:33.019Z,15.37
2019-03-26T05:17:04.174Z,15.87
2019-03-26T05:17:35.385Z,15.63
2019-03-26T05:18:06.552Z,19.30
2019-03-26T05:18:37.748Z,14.67
2019-03-26T05:19:08.928Z,16.00
2019-03-26T05:19:40.106Z,16.90
2019-03-26T05:20:11.261Z,15.50
2019-03-26T05:20:42.433Z,17.87
2019-03-26T05:21:13.592Z,18.43
2019-03-26T05:21:44.753Z,17.30
2019-03-26T05:22:24.125Z,15.27
2019-03-26T05:22:49.027Z,16.23
2019-03-26T05:23:20.169Z,16.57
2019-03-26T05:23:52.070Z,17.23
2019-03-26T05:24:24.430Z,14.87
2019-03-26T05:24:55.636Z,17.70
2019-03-26T05:25:26.805Z,14.90
2019-03-26T05:25:58.016Z,18.67
2019-03-26T05:26:29.174Z,17.30
2019-03-26T05:27:00.378Z,16.23
2019-03-26T05:27:44.837Z,21.73
2019-03-26T05:28:06.452Z,19.00
2019-03-26T05:28:37.637Z,18.97
2019-03-26T05:29:08.817Z,21.23
2019-03-26T05:29:39.998Z,21.17
2019-03-26T05:30:11.170Z,21.73
2019-03-26T05:30:42.359Z,18.50
2019-03-26T05:31:13.545Z,18.10
2019-03-26T05:31:44.719Z,24.67
2019-03-26T05:32:15.879Z,19.20
2019-03-26T05:32:47.061Z,20.17
2019-03-26T05:33:18.239Z,17.67
2019-03-26T05:33:49.425Z,19.67
2019-03-26T05:34:20.599Z,19.97
2019-03-26T05:34:51.769Z,19.60
2019-03-26T05:35:22.943Z,22.77
2019-03-26T05:35:54.125Z,19.10
2019-03-26T05:36:25.301Z,20.43
2019-03-26T05:36:57.502Z,21.17
2019-03-26T05:37:28.705Z,20.03
2019-03-26T05:37:59.897Z,23.13
2019-03-26T05:38:31.075Z,18.33
2019-03-26T05:39:04.488Z,23.50
2019-03-26T05:39:35.666Z,20.00
2019-03-26T05:40:07.245Z,20.57
2019-03-26T05:40:38.438Z,19.83
2019-03-26T05:41:10.779Z,19.80
2019-03-26T05:41:41.992Z,23.83
2019-03-26T05:42:13.158Z,18.87
2019-03-26T05:42:44.376Z,18.63
2019-03-26T05:43:15.554Z,19.87
2019-03-26T05:43:46.752Z,19.67
2019-03-26T05:44:17.950Z,24.17
2019-03-26T05:44:49.180Z,20.13
2019-03-26T05:45:20.344Z,19.03
2019-03-26T05:45:51.578Z,23.30
2019-03-26T05:46:22.714Z,21.43
2019-03-26T05:46:54.355Z,21.77
2019-03-26T05:47:25.711Z,22.00
2019-03-26T05:47:57.021Z,19.40
2019-03-26T05:48:28.165Z,19.87
2019-03-26T05:48:59.383Z,22.73
2019-03-26T05:49:30.580Z,20.97
2019-03-26T05:50:04.066Z,20.33
2019-03-26T05:50:35.255Z,18.00
2019-03-26T05:51:06.469Z,21.53
2019-03-26T05:51:37.671Z,21.43
2019-03-26T05:52:08.847Z,22.40
2019-03-26T05:52:40.035Z,19.53
2019-03-26T05:53:11.231Z,20.20
2019-03-26T05:53:42.410Z,18.17
2019-03-26T05:54:13.634Z,20.03
2019-03-26T05:54:44.803Z,20.57
2019-03-26T05:55:16.023Z,22.97
2019-03-26T05:55:47.176Z,19.97
2019-03-26T05:56:18.385Z,24.80
2019-03-26T05:56:49.524Z,20.50
2019-03-26T05:57:20.748Z,20.70
2019-03-26T05:57:51.940Z,20.17
2019-03-26T05:58:23.145Z,19.97
2019-03-26T05:58:54.314Z,18.90
2019-03-26T05:59:25.543Z,21.00
2019-03-26T05:59:56.697Z,25.93
2019-03-26T06:00:27.934Z,19.27
2019-03-26T06:00:59.186Z,23.93
2019-03-26T06:01:30.428Z,20.00
2019-03-26T06:02:13.438Z,18.40
2019-03-26T06:02:34.698Z,17.80
2019-03-26T06:03:05.881Z,18.90
2019-03-26T06:03:37.114Z,18.83
2019-03-26T06:04:08.338Z,20.87
2019-03-26T06:04:39.587Z,17.90
2019-03-26T06:05:10.800Z,17.90
2019-03-26T06:05:42.051Z,19.10
2019-03-26T06:06:13.294Z,19.10
2019-03-26T06:06:44.521Z,19.13
2019-03-26T06:07:15.767Z,18.80
2019-03-26T06:07:46.981Z,16.57
2019-03-26T06:08:18.195Z,17.90
2019-03-26T06:08:49.365Z,18.13
2019-03-26T06:09:20.585Z,18.10
2019-03-26T06:09:51.833Z,15.83
2019-03-26T06:10:23.054Z,16.03
2019-03-26T06:10:54.257Z,17.77
2019-03-26T06:11:25.470Z,16.27
2019-03-26T06:11:56.644Z,16.57
2019-03-26T06:12:27.855Z,17.47
2019-03-26T06:12:59.008Z,17.80
2019-03-26T06:13:30.238Z,20.87
2019-03-26T06:14:01.431Z,19.13
2019-03-26T06:14:32.716Z,18.00
2019-03-26T06:15:06.576Z,21.27
2019-03-26T06:15:37.795Z,22.80
2019-03-26T06:16:08.963Z,18.83
2019-03-26T06:16:40.166Z,20.13
2019-03-26T06:17:11.324Z,21.27
2019-03-26T06:17:42.536Z,20.50
2019-03-26T06:18:13.827Z,21.57
2019-03-26T06:18:45.029Z,20.80
2019-03-26T06:19:16.216Z,21.13
2019-03-26T06:19:47.459Z,21.73
2019-03-26T06:20:18.602Z,19.43
2019-03-26T06:20:49.800Z,20.83
2019-03-26T06:21:20.962Z,20.33
2019-03-26T06:21:52.160Z,21.27
2019-03-26T06:22:23.639Z,21.30
2019-03-26T06:22:54.919Z,24.43
2019-03-26T06:23:26.093Z,20.43
2019-03-26T06:23:57.347Z,23.00
2019-03-26T06:24:28.583Z,22.13
2019-03-26T06:24:59.815Z,20.63
2019-03-26T06:25:31.048Z,19.80
2019-03-26T06:26:02.279Z,19.73
2019-03-26T06:26:33.567Z,22.13
2019-03-26T06:27:04.796Z,23.23
2019-03-26T06:27:36.035Z,23.37
2019-03-26T06:28:07.269Z,22.63
2019-03-26T06:28:38.569Z,24.67
2019-03-26T06:29:09.728Z,23.47
2019-03-26T06:29:40.935Z,25.30
2019-03-26T06:30:12.094Z,24.27
2019-03-26T06:30:43.294Z,21.03
2019-03-26T06:31:14.450Z,23.40
2019-03-26T06:31:45.670Z,25.83
2019-03-26T06:32:16.828Z,26.00
2019-03-26T06:32:48.064Z,25.00
2019-03-26T06:33:19.220Z,27.33
2019-03-26T06:33:50.432Z,23.20
2019-03-26T06:34:21.591Z,24.63
2019-03-26T06:34:52.803Z,23.73
2019-03-26T06:35:23.953Z,25.97
2019-03-26T06:35:55.172Z,26.60
2019-03-26T06:36:26.464Z,24.87
2019-03-26T06:36:57.727Z,23.63
2019-03-26T06:37:28.905Z,29.03
2019-03-26T06:38:00.131Z,23.33
2019-03-26T06:38:31.333Z,22.37
2019-03-26T06:39:06.022Z,27.27
2019-03-26T06:39:37.186Z,20.47
2019-03-26T06:40:09.000Z,25.70
2019-03-26T06:40:40.157Z,25.83
2019-03-26T06:41:11.377Z,20.67
2019-03-26T06:41:42.527Z,22.27
2019-03-26T06:42:13.726Z,21.90
2019-03-26T06:42:44.870Z,20.80
2019-03-26T06:43:16.091Z,20.73
2019-03-26T06:43:47.275Z,24.10
2019-03-26T06:44:18.527Z,34.73